Latest Coastal Weather Observations for Ngayawili (Elcho Island)

IDD60701

Issued at 2:41 am CST Sunday 20 October 2019 (issued every 10 minutes, with the page automatically refreshed every 10 minutes)

About coastal observations | Map of coastal stations | Coastal observations for NT | Marine services | Other Formats
Station Details ID: 014517 Name: NGAYAWILI Lat: -12.00 Lon: 135.57 Height: 8.1 m
Data from the previous 72 hours. | See also: Recent months at Ngayawili (Elcho Island)
Date/Time
CST
Wind Sea
Height
m
Swell Vis
km
Cloud Weather Temp
°C
Press
hPa
Rain since
9am
mm
Dir  Spd
kts
Gust
kts
Height
m
Period
s
Dir
20/02:30am ESE 3 4 - - - - - - - 23.6 1011.6 0.0
20/02:00am ESE 3 4 - - - - - - - 24.1 1011.9 0.0
20/01:30am ENE 4 4 - - - - - - - 24.6 1012.3 0.0
20/01:00am E 4 5 - - - - - - - 25.3 1012.5 0.0
20/12:30am ESE 4 6 - - - - - - - 25.7 1012.9 0.0
20/12:00am ESE 4 7 - - - - - - - 25.9 1013.3 0.0
 
Date/Time
CST
Wind Sea
Height
m
Swell Vis
km
Cloud Weather Temp
°C
Press
hPa
Rain since
9am
mm
Dir  Spd
kts
Gust
kts
Height
m
Period
s
Dir
19/11:30pm E 6 9 - - - - - - - 26.2 1013.5 0.0
19/11:00pm E 7 11 - - - - - - - 26.3 1013.5 0.0
19/10:30pm E 7 11 - - - - - - - 26.4 1013.6 0.0
19/10:00pm E 7 11 - - - - - - - 26.4 1013.6 0.0
19/09:30pm ENE 7 11 - - - - - - - 26.6 1013.3 0.0
19/09:00pm E 8 12 - - - - - - - 26.8 1013.0 0.0
19/08:30pm ENE 7 10 - - - - - - - 26.8 1012.9 0.0
19/08:00pm ENE 6 11 - - - - - - - 26.9 1012.5 0.0
19/07:30pm ENE 9 14 - - - - - - - 27.3 1012.2 0.0
19/07:00pm ENE 8 13 - - - - - - - 27.7 1011.8 0.0
19/06:30pm NE 9 14 - - - - - - - 28.1 1011.4 0.0
19/06:00pm NE 9 15 - - - - - - - 28.8 1011.0 0.0
19/05:30pm NE 12 18 - - - - - - - 29.3 1010.7 0.0
19/05:00pm NE 13 18 - - - - - - - 29.9 1010.4 0.0
19/04:30pm NE 13 19 - - - - - - - 30.0 1010.4 0.0
19/04:00pm NE 14 21 - - - - - - - 30.6 1010.6 0.0
19/03:30pm NNE 16 22 - - - - - - - 31.1 1010.7 0.0
19/03:00pm NNE 15 20 - - - - - - - 31.8 1010.9 0.0
19/02:30pm NNE 15 19 - - - - - - - 32.0 1011.1 0.0
19/02:00pm NNE 17 20 - - - - - - - 32.0 1011.4 0.0
19/01:30pm N 8 16 - - - - - - - 33.2 1011.7 0.0
19/01:00pm E 8 15 - - - - - - - 33.7 1012.4 0.0
19/12:30pm E 8 15 - - - - - - - 33.1 1013.1 0.0
19/12:00pm ESE 8 15 - - - - - - - 33.5 1013.4 0.0
19/11:30am E 9 15 - - - - - - - 33.7 1013.8 0.0
19/11:00am NNE 10 15 - - - - - - - 31.8 1013.9 0.0
19/10:30am NNE 10 15 - - - - - - - 31.4 1014.0 0.0
19/10:00am N 10 12 - - - - - - - 30.0 1014.2 0.0
19/09:30am N 10 12 - - - - - - - 29.4 1014.2 0.0
19/09:00am NE 7 9 - - - - - - - 29.4 1014.3 0.0
19/08:30am NE 7 12 - - - - - - - 28.4 1014.2 0.0
19/08:00am ENE 4 9 - - - - - - - 27.3 1013.9 0.0
19/07:30am ENE 3 5 - - - - - - - 25.6 1013.5 0.0
19/07:00am E 2 3 - - - - - - - 24.3 1013.3 0.0
19/06:30am ESE 4 5 - - - - - - - 23.6 1013.1 0.0
19/06:00am E 4 5 - - - - - - - 23.4 1013.0 0.0
19/05:30am E 3 4 - - - - - - - 22.1 1012.8 0.0
19/05:00am ESE 3 5 - - - - - - - 22.3 1012.8 0.0
19/04:30am E 4 5 - - - - - - - 23.3 1012.4 0.0
19/04:00am CALM 0 0 - - - - - - - 23.1 1012.0 0.0
19/03:30am E 3 4 - - - - - - - 22.7 1012.0 0.0
19/03:00am ESE 2 3 - - - - - - - 23.5 1012.5 0.0
19/02:30am SE 3 4 - - - - - - - 23.5 1012.7 0.0
19/02:00am ESE 4 5 - - - - - - - 24.2 1012.8 0.0
19/01:30am ESE 5 7 - - - - - - - 24.6 1013.1 0.0
19/01:00am ESE 4 6 - - - - - - - 24.7 1013.3 0.0
19/12:30am E 4 6 - - - - - - - 25.1 1013.6 0.0
19/12:00am E 4 6 - - - - - - - 25.3 1014.0 0.0
 
Date/Time
CST
Wind Sea
Height
m
Swell Vis
km
Cloud Weather Temp
°C
Press
hPa
Rain since
9am
mm
Dir  Spd
kts
Gust
kts
Height
m
Period
s
Dir
18/11:30pm E 6 8 - - - - - - - 25.4 1014.3 0.0
18/11:00pm E 6 8 - - - - - - - 25.6 1014.4 0.0
18/10:30pm E 6 8 - - - - - - - 25.6 1014.3 0.0
18/10:00pm ENE 6 8 - - - - - - - 25.5 1014.1 0.0
18/09:30pm E 5 8 - - - - - - - 25.8 1013.8 0.0
18/09:00pm ENE 7 10 - - - - - - - 26.2 1013.6 0.0
18/08:30pm E 8 13 - - - - - - - 26.5 1013.1 0.0
18/08:00pm ENE 7 14 - - - - - - - 26.8 1012.7 0.0
18/07:30pm ENE 9 14 - - - - - - - 27.1 1012.3 0.0
18/07:00pm ENE 9 15 - - - - - - - 27.4 1012.0 0.0
18/06:30pm ENE 9 16 - - - - - - - 27.7 1011.5 0.0
18/06:00pm NE 11 17 - - - - - - - 28.3 1011.1 0.0
18/05:30pm NE 14 20 - - - - - - - 28.9 1010.7 0.0
18/05:00pm NE 13 19 - - - - - - - 29.7 1010.4 0.0
18/04:30pm NE 15 21 - - - - - - - 30.2 1010.2 0.0
18/04:00pm NNE 15 19 - - - - - - - 30.9 1010.0 0.0
18/03:30pm NNE 15 19 - - - - - - - 30.9 1010.1 0.0
18/03:00pm NNE 16 20 - - - - - - - 31.0 1010.1 0.0
18/02:30pm NNE 15 18 - - - - - - - 31.6 1010.4 0.0
18/02:00pm NNE 16 20 - - - - - - - 31.3 1010.6 0.0
18/01:30pm NNE 13 18 - - - - - - - 32.6 1011.1 0.0
18/01:00pm NNE 12 19 - - - - - - - 31.8 1011.5 0.0
18/12:30pm NNE 13 16 - - - - - - - 31.2 1011.8 0.0
18/12:00pm NNE 13 17 - - - - - - - 31.6 1012.1 0.0
18/11:30am NNE 14 18 - - - - - - - 30.6 1012.4 0.0
18/11:00am NNE 15 18 - - - - - - - 30.5 1012.6 0.0
18/10:30am NNE 14 16 - - - - - - - 30.3 1012.8 0.0
18/10:00am NNE 13 17 - - - - - - - 29.9 1013.1 0.0
18/09:30am NNE 11 15 - - - - - - - 29.6 1013.3 0.0
18/09:00am NE 9 13 - - - - - - - 28.6 1013.3 0.0
18/08:30am ENE 7 12 - - - - - - - 28.4 1013.2 0.0
18/08:00am ENE 7 11 - - - - - - - 26.6 1013.2 0.0
18/07:30am E 4 7 - - - - - - - 25.1 1013.1 0.0
18/07:00am ESE 2 5 - - - - - - - 23.5 1012.9 0.0
18/06:30am ESE 4 6 - - - - - - - 22.3 1012.5 0.0
18/06:00am ESE 4 5 - - - - - - - 21.3 1012.3 0.0
18/05:30am ESE 4 5 - - - - - - - 22.2 1012.1 0.0
18/05:00am ESE 3 4 - - - - - - - 22.0 1012.0 0.0
18/04:30am ESE 4 4 - - - - - - - 22.9 1011.7 0.0
18/04:00am ESE 3 4 - - - - - - - 23.0 1011.5 0.0
18/03:30am ESE 4 5 - - - - - - - 23.3 1011.5 0.0
18/03:00am ESE 5 7 - - - - - - - 23.6 1011.5 0.0
18/02:30am ESE 5 7 - - - - - - - 23.6 1011.8 0.0
18/02:00am E 4 5 - - - - - - - 23.6 1012.1 0.0
18/01:30am E 4 6 - - - - - - - 23.8 1012.3 0.0
18/01:00am ENE 4 6 - - - - - - - 24.1 1012.6 0.0
18/12:30am E 4 6 - - - - - - - 24.4 1012.8 0.0
18/12:00am E 5 8 - - - - - - - 24.5 1012.9 0.0
 
Date/Time
CST
Wind Sea
Height
m
Swell Vis
km
Cloud Weather Temp
°C
Press
hPa
Rain since
9am
mm
Dir  Spd
kts
Gust
kts
Height
m
Period
s
Dir
17/11:30pm E 5 7 - - - - - - - 24.5 1013.1 0.0
17/11:00pm E 5 8 - - - - - - - 24.6 1013.1 0.0
17/10:30pm E 4 6 - - - - - - - 24.6 1013.1 0.0
17/10:00pm E 3 5 - - - - - - - 24.8 1013.2 0.0
17/09:30pm E 3 6 - - - - - - - 25.0 1013.0 0.0
17/09:00pm ENE 4 6 - - - - - - - 25.3 1012.9 0.0
17/08:30pm E 4 6 - - - - - - - 25.6 1012.8 0.0
17/08:00pm ENE 4 6 - - - - - - - 26.1 1012.2 0.0
17/07:30pm NE 3 5 - - - - - - - 26.5 1011.9 0.0
17/07:00pm NE 6 8 - - - - - - - 27.2 1011.5 0.0
17/06:30pm NE 7 11 - - - - - - - 27.7 1011.2 0.0
17/06:00pm NE 8 11 - - - - - - - 28.6 1011.0 0.0
17/05:30pm NNE 10 14 - - - - - - - 29.4 1010.7 0.0
17/05:00pm NNE 10 14 - - - - - - - 29.8 1010.5 0.0
17/04:30pm NNE 12 16 - - - - - - - 30.0 1010.5 0.0
17/04:00pm NNE 11 17 - - - - - - - 30.6 1010.6 0.0
17/03:30pm NNE 13 19 - - - - - - - 30.7 1010.5 0.0
17/03:00pm NNE 14 17 - - - - - - - 30.7 1010.5 0.0
17/02:30pm NNE 14 17 - - - - - - - 31.2 1010.7 0.0
17/02:00pm NNE 13 16 - - - - - - - 31.2 1011.0 0.0
17/01:30pm NNE 14 17 - - - - - - - 31.6 1011.2 0.0
17/01:00pm NNE 15 19 - - - - - - - 31.6 1011.7 0.0
17/12:30pm NNE 14 18 - - - - - - - 31.3 1012.2 0.0
17/12:00pm NNE 15 20 - - - - - - - 30.9 1012.8 0.0
17/11:30am NNE 13 18 - - - - - - - 30.6 1013.0 0.0
17/11:00am NNE 13 19 - - - - - - - 29.9 1013.3 0.0
17/10:30am NNE 13 17 - - - - - - - 29.8 1013.5 0.0
17/10:00am NNE 12 17 - - - - - - - 29.4 1013.7 0.0
17/09:30am NNE 10 14 - - - - - - - 28.9 1013.8 0.0
17/09:00am NE 9 14 - - - - - - - 28.2 1013.9 0.2
17/08:30am NE 8 13 - - - - - - - 27.4 1013.8 0.2
17/08:00am NE 5 9 - - - - - - - 26.2 1013.4 0.2
17/07:30am E 4 5 - - - - - - - 25.1 1013.0 0.2
17/07:00am ESE 5 6 - - - - - - - 22.6 1012.7 0.2
17/06:30am E 5 6 - - - - - - - 21.2 1012.3 0.2
17/06:00am E 5 6 - - - - - - - 21.8 1011.9 0.2
17/05:30am E 4 5 - - - - - - - 20.2 1011.7 0.2
17/05:00am E 4 5 - - - - - - - 21.8 1011.3 0.2
17/04:30am ESE 5 5 - - - - - - - 20.5 1011.1 0.2
17/04:00am ENE 5 6 - - - - - - - 21.9 1010.9 0.2
17/03:30am E 5 6 - - - - - - - 20.1 1010.8 0.2
17/03:00am E 3 4 - - - - - - - 21.1 1010.7 0.2

Other formats

Comma delimited format used in spreadsheet applications
http://www.bom.gov.au/fwo/IDD60701/IDD60701.95146.axf

JavaScript Object Notation format (JSON) in row-major order
http://www.bom.gov.au/fwo/IDD60701/IDD60701.95146.json

Data quality

Most of these data are generated automatically and are frequently updated. Quality checks on data are not normally performed. It is possible for incorrect values to appear. Refer to information at About Latest Weather Observations and please check the disclaimer before using these data.